sensor_id;sensor_type;location;lat;lon;timestamp;P1;durP1;ratioP1;P2;durP2;ratioP2
8285;SDS011;4181;43.416;24.598;2023-12-14T00:01:11;11.90;;;7.53;;
8285;SDS011;4181;43.416;24.598;2023-12-14T00:03:38;10.27;;;6.80;;
8285;SDS011;4181;43.416;24.598;2023-12-14T00:06:06;9.57;;;6.90;;
8285;SDS011;4181;43.416;24.598;2023-12-14T00:08:34;9.87;;;7.30;;
8285;SDS011;4181;43.416;24.598;2023-12-14T00:11:11;10.77;;;6.27;;
8285;SDS011;4181;43.416;24.598;2023-12-14T00:13:38;11.13;;;7.13;;
8285;SDS011;4181;43.416;24.598;2023-12-14T00:16:04;14.13;;;7.17;;
8285;SDS011;4181;43.416;24.598;2023-12-14T00:18:30;8.03;;;5.10;;
8285;SDS011;4181;43.416;24.598;2023-12-14T00:20:55;9.77;;;6.27;;
8285;SDS011;4181;43.416;24.598;2023-12-14T00:23:21;12.50;;;6.70;;
8285;SDS011;4181;43.416;24.598;2023-12-14T00:25:48;17.67;;;8.67;;
8285;SDS011;4181;43.416;24.598;2023-12-14T00:28:14;27.93;;;10.77;;
8285;SDS011;4181;43.416;24.598;2023-12-14T00:30:39;22.73;;;11.23;;
8285;SDS011;4181;43.416;24.598;2023-12-14T00:33:05;26.73;;;11.30;;
8285;SDS011;4181;43.416;24.598;2023-12-14T00:35:33;21.67;;;10.50;;
8285;SDS011;4181;43.416;24.598;2023-12-14T00:38:01;24.33;;;8.93;;
8285;SDS011;4181;43.416;24.598;2023-12-14T00:40:30;13.23;;;8.13;;
8285;SDS011;4181;43.416;24.598;2023-12-14T00:42:55;16.73;;;7.40;;
8285;SDS011;4181;43.416;24.598;2023-12-14T00:45:23;10.00;;;7.10;;
8285;SDS011;4181;43.416;24.598;2023-12-14T00:47:49;11.27;;;6.73;;
8285;SDS011;4181;43.416;24.598;2023-12-14T00:50:14;10.77;;;6.03;;
8285;SDS011;4181;43.416;24.598;2023-12-14T00:52:40;11.93;;;7.00;;
8285;SDS011;4181;43.416;24.598;2023-12-14T00:55:05;9.23;;;6.93;;
8285;SDS011;4181;43.416;24.598;2023-12-14T00:57:32;9.60;;;7.00;;
8285;SDS011;4181;43.416;24.598;2023-12-14T00:59:58;11.80;;;6.40;;
8285;SDS011;4181;43.416;24.598;2023-12-14T01:02:23;16.13;;;7.07;;
8285;SDS011;4181;43.416;24.598;2023-12-14T01:04:49;10.30;;;5.83;;
8285;SDS011;4181;43.416;24.598;2023-12-14T01:07:14;8.53;;;6.40;;
8285;SDS011;4181;43.416;24.598;2023-12-14T01:09:40;11.40;;;7.57;;
8285;SDS011;4181;43.416;24.598;2023-12-14T01:12:05;8.50;;;6.53;;
8285;SDS011;4181;43.416;24.598;2023-12-14T01:14:31;11.53;;;7.50;;
8285;SDS011;4181;43.416;24.598;2023-12-14T01:16:56;7.80;;;5.70;;
8285;SDS011;4181;43.416;24.598;2023-12-14T01:19:22;10.43;;;7.30;;
8285;SDS011;4181;43.416;24.598;2023-12-14T01:21:47;9.73;;;6.87;;
8285;SDS011;4181;43.416;24.598;2023-12-14T01:24:12;10.87;;;6.77;;
8285;SDS011;4181;43.416;24.598;2023-12-14T01:26:39;9.07;;;6.23;;
8285;SDS011;4181;43.416;24.598;2023-12-14T01:29:05;12.47;;;7.87;;
8285;SDS011;4181;43.416;24.598;2023-12-14T01:31:30;14.10;;;9.07;;
8285;SDS011;4181;43.416;24.598;2023-12-14T01:33:55;11.70;;;8.17;;
8285;SDS011;4181;43.416;24.598;2023-12-14T01:36:24;13.43;;;7.80;;
8285;SDS011;4181;43.416;24.598;2023-12-14T01:38:51;15.30;;;10.67;;
8285;SDS011;4181;43.416;24.598;2023-12-14T01:41:17;14.67;;;8.43;;
8285;SDS011;4181;43.416;24.598;2023-12-14T01:43:43;12.60;;;7.47;;
8285;SDS011;4181;43.416;24.598;2023-12-14T01:46:09;11.73;;;8.33;;
8285;SDS011;4181;43.416;24.598;2023-12-14T01:48:38;13.07;;;8.53;;
8285;SDS011;4181;43.416;24.598;2023-12-14T01:51:03;14.07;;;8.50;;
8285;SDS011;4181;43.416;24.598;2023-12-14T01:53:30;14.30;;;8.63;;
8285;SDS011;4181;43.416;24.598;2023-12-14T01:55:56;14.37;;;7.97;;
8285;SDS011;4181;43.416;24.598;2023-12-14T01:58:21;16.23;;;9.60;;
8285;SDS011;4181;43.416;24.598;2023-12-14T02:00:56;12.23;;;9.00;;
8285;SDS011;4181;43.416;24.598;2023-12-14T02:03:23;9.93;;;7.17;;
8285;SDS011;4181;43.416;24.598;2023-12-14T02:05:48;14.03;;;7.13;;
8285;SDS011;4181;43.416;24.598;2023-12-14T02:08:15;15.43;;;9.17;;
8285;SDS011;4181;43.416;24.598;2023-12-14T02:10:43;9.67;;;7.23;;
8285;SDS011;4181;43.416;24.598;2023-12-14T02:13:10;14.20;;;7.00;;
8285;SDS011;4181;43.416;24.598;2023-12-14T02:15:35;17.77;;;9.30;;
8285;SDS011;4181;43.416;24.598;2023-12-14T02:18:01;12.03;;;7.97;;
8285;SDS011;4181;43.416;24.598;2023-12-14T02:20:29;7.97;;;5.73;;
8285;SDS011;4181;43.416;24.598;2023-12-14T02:22:54;9.67;;;6.80;;
8285;SDS011;4181;43.416;24.598;2023-12-14T02:25:20;14.63;;;7.73;;
8285;SDS011;4181;43.416;24.598;2023-12-14T02:27:50;10.70;;;7.30;;
8285;SDS011;4181;43.416;24.598;2023-12-14T02:30:19;10.23;;;6.93;;
8285;SDS011;4181;43.416;24.598;2023-12-14T02:32:45;8.97;;;5.43;;
8285;SDS011;4181;43.416;24.598;2023-12-14T02:35:10;25.50;;;6.30;;
8285;SDS011;4181;43.416;24.598;2023-12-14T02:37:36;13.90;;;7.80;;
8285;SDS011;4181;43.416;24.598;2023-12-14T02:40:08;7.83;;;5.97;;
8285;SDS011;4181;43.416;24.598;2023-12-14T02:42:35;10.03;;;5.83;;
8285;SDS011;4181;43.416;24.598;2023-12-14T02:45:01;7.37;;;5.27;;
8285;SDS011;4181;43.416;24.598;2023-12-14T02:47:27;8.23;;;6.37;;
8285;SDS011;4181;43.416;24.598;2023-12-14T02:49:54;12.47;;;7.17;;
8285;SDS011;4181;43.416;24.598;2023-12-14T02:52:19;12.40;;;7.03;;
8285;SDS011;4181;43.416;24.598;2023-12-14T02:54:45;9.27;;;5.77;;
8285;SDS011;4181;43.416;24.598;2023-12-14T02:57:10;7.23;;;5.60;;
8285;SDS011;4181;43.416;24.598;2023-12-14T02:59:36;13.30;;;6.97;;
8285;SDS011;4181;43.416;24.598;2023-12-14T03:02:01;8.83;;;6.90;;
8285;SDS011;4181;43.416;24.598;2023-12-14T03:04:27;9.83;;;6.10;;
8285;SDS011;4181;43.416;24.598;2023-12-14T03:06:52;9.43;;;6.17;;
8285;SDS011;4181;43.416;24.598;2023-12-14T03:09:19;7.33;;;4.40;;
8285;SDS011;4181;43.416;24.598;2023-12-14T03:11:47;11.20;;;6.40;;
8285;SDS011;4181;43.416;24.598;2023-12-14T03:14:13;7.87;;;5.90;;
8285;SDS011;4181;43.416;24.598;2023-12-14T03:16:38;8.90;;;6.33;;
8285;SDS011;4181;43.416;24.598;2023-12-14T03:19:04;7.73;;;6.37;;
8285;SDS011;4181;43.416;24.598;2023-12-14T03:21:30;12.03;;;8.07;;
8285;SDS011;4181;43.416;24.598;2023-12-14T03:23:56;9.70;;;7.53;;
8285;SDS011;4181;43.416;24.598;2023-12-14T03:26:22;11.80;;;6.23;;
8285;SDS011;4181;43.416;24.598;2023-12-14T03:28:47;13.17;;;7.50;;
8285;SDS011;4181;43.416;24.598;2023-12-14T03:31:13;22.60;;;8.63;;
8285;SDS011;4181;43.416;24.598;2023-12-14T03:33:38;21.27;;;7.17;;
8285;SDS011;4181;43.416;24.598;2023-12-14T03:36:05;10.00;;;5.87;;
8285;SDS011;4181;43.416;24.598;2023-12-14T03:38:31;13.70;;;8.57;;
8285;SDS011;4181;43.416;24.598;2023-12-14T03:40:57;12.63;;;8.03;;
8285;SDS011;4181;43.416;24.598;2023-12-14T03:43:22;13.60;;;8.23;;
8285;SDS011;4181;43.416;24.598;2023-12-14T03:45:48;11.47;;;6.63;;
8285;SDS011;4181;43.416;24.598;2023-12-14T03:48:13;11.97;;;6.70;;
8285;SDS011;4181;43.416;24.598;2023-12-14T03:50:39;9.70;;;6.10;;
8285;SDS011;4181;43.416;24.598;2023-12-14T03:53:04;7.17;;;5.90;;
8285;SDS011;4181;43.416;24.598;2023-12-14T03:55:29;11.13;;;7.20;;
8285;SDS011;4181;43.416;24.598;2023-12-14T03:57:55;9.07;;;6.43;;
8285;SDS011;4181;43.416;24.598;2023-12-14T04:00:23;11.50;;;7.10;;
8285;SDS011;4181;43.416;24.598;2023-12-14T04:02:48;5.60;;;5.00;;
8285;SDS011;4181;43.416;24.598;2023-12-14T04:05:14;7.83;;;5.37;;
8285;SDS011;4181;43.416;24.598;2023-12-14T04:07:39;7.67;;;5.57;;
8285;SDS011;4181;43.416;24.598;2023-12-14T04:10:12;9.93;;;5.87;;
8285;SDS011;4181;43.416;24.598;2023-12-14T04:12:39;7.37;;;6.63;;
8285;SDS011;4181;43.416;24.598;2023-12-14T04:15:06;9.27;;;5.70;;
8285;SDS011;4181;43.416;24.598;2023-12-14T04:17:33;10.17;;;6.27;;
8285;SDS011;4181;43.416;24.598;2023-12-14T04:19:59;11.17;;;8.13;;
8285;SDS011;4181;43.416;24.598;2023-12-14T04:22:25;10.57;;;7.80;;
8285;SDS011;4181;43.416;24.598;2023-12-14T04:24:51;8.17;;;7.27;;
8285;SDS011;4181;43.416;24.598;2023-12-14T04:27:17;15.53;;;8.97;;
8285;SDS011;4181;43.416;24.598;2023-12-14T04:29:42;9.37;;;6.70;;
8285;SDS011;4181;43.416;24.598;2023-12-14T04:32:08;11.50;;;8.53;;
8285;SDS011;4181;43.416;24.598;2023-12-14T04:34:35;6.90;;;5.67;;
8285;SDS011;4181;43.416;24.598;2023-12-14T04:37:01;8.83;;;5.77;;
8285;SDS011;4181;43.416;24.598;2023-12-14T04:39:29;9.33;;;6.00;;
8285;SDS011;4181;43.416;24.598;2023-12-14T04:41:57;8.60;;;5.37;;
8285;SDS011;4181;43.416;24.598;2023-12-14T04:44:22;10.17;;;6.03;;
8285;SDS011;4181;43.416;24.598;2023-12-14T04:46:48;10.43;;;6.87;;
8285;SDS011;4181;43.416;24.598;2023-12-14T04:49:13;13.83;;;7.53;;
8285;SDS011;4181;43.416;24.598;2023-12-14T04:51:39;11.63;;;7.57;;
8285;SDS011;4181;43.416;24.598;2023-12-14T04:54:05;13.40;;;8.57;;
8285;SDS011;4181;43.416;24.598;2023-12-14T04:56:30;9.63;;;6.90;;
8285;SDS011;4181;43.416;24.598;2023-12-14T04:58:56;7.83;;;5.47;;
8285;SDS011;4181;43.416;24.598;2023-12-14T05:01:21;10.00;;;6.57;;
8285;SDS011;4181;43.416;24.598;2023-12-14T05:03:47;8.00;;;5.40;;
8285;SDS011;4181;43.416;24.598;2023-12-14T05:06:12;6.00;;;4.93;;
8285;SDS011;4181;43.416;24.598;2023-12-14T05:08:41;7.37;;;6.23;;
8285;SDS011;4181;43.416;24.598;2023-12-14T05:11:06;9.20;;;6.67;;
8285;SDS011;4181;43.416;24.598;2023-12-14T05:13:31;6.30;;;5.43;;
8285;SDS011;4181;43.416;24.598;2023-12-14T05:15:57;7.03;;;6.33;;
8285;SDS011;4181;43.416;24.598;2023-12-14T05:18:23;8.00;;;6.23;;
8285;SDS011;4181;43.416;24.598;2023-12-14T05:20:49;5.20;;;4.70;;
8285;SDS011;4181;43.416;24.598;2023-12-14T05:23:15;6.03;;;5.10;;
8285;SDS011;4181;43.416;24.598;2023-12-14T05:25:41;8.60;;;5.67;;
8285;SDS011;4181;43.416;24.598;2023-12-14T05:28:06;5.87;;;4.97;;
8285;SDS011;4181;43.416;24.598;2023-12-14T05:30:35;7.57;;;4.67;;
8285;SDS011;4181;43.416;24.598;2023-12-14T05:33:00;8.87;;;5.53;;
8285;SDS011;4181;43.416;24.598;2023-12-14T05:35:29;9.17;;;6.10;;
8285;SDS011;4181;43.416;24.598;2023-12-14T05:37:55;8.27;;;5.40;;
8285;SDS011;4181;43.416;24.598;2023-12-14T05:40:23;6.60;;;5.67;;
8285;SDS011;4181;43.416;24.598;2023-12-14T05:42:48;9.30;;;5.30;;
8285;SDS011;4181;43.416;24.598;2023-12-14T05:45:14;9.47;;;5.57;;
8285;SDS011;4181;43.416;24.598;2023-12-14T05:47:40;16.33;;;6.93;;
8285;SDS011;4181;43.416;24.598;2023-12-14T05:50:06;8.87;;;6.10;;
8285;SDS011;4181;43.416;24.598;2023-12-14T05:52:34;9.10;;;5.10;;
8285;SDS011;4181;43.416;24.598;2023-12-14T05:54:59;14.07;;;6.27;;
8285;SDS011;4181;43.416;24.598;2023-12-14T05:57:25;6.27;;;5.67;;
8285;SDS011;4181;43.416;24.598;2023-12-14T05:59:50;11.07;;;6.20;;
8285;SDS011;4181;43.416;24.598;2023-12-14T06:02:16;11.87;;;6.13;;
8285;SDS011;4181;43.416;24.598;2023-12-14T06:04:41;10.77;;;5.90;;
8285;SDS011;4181;43.416;24.598;2023-12-14T06:07:07;10.63;;;5.07;;
8285;SDS011;4181;43.416;24.598;2023-12-14T06:09:32;5.67;;;4.80;;
8285;SDS011;4181;43.416;24.598;2023-12-14T06:12:01;8.50;;;6.77;;
8285;SDS011;4181;43.416;24.598;2023-12-14T06:14:28;5.23;;;4.60;;
8285;SDS011;4181;43.416;24.598;2023-12-14T06:16:55;7.60;;;6.13;;
8285;SDS011;4181;43.416;24.598;2023-12-14T06:19:20;10.87;;;7.20;;
8285;SDS011;4181;43.416;24.598;2023-12-14T06:21:49;8.07;;;4.93;;
8285;SDS011;4181;43.416;24.598;2023-12-14T06:24:15;5.70;;;3.77;;
8285;SDS011;4181;43.416;24.598;2023-12-14T06:26:41;7.83;;;5.60;;
8285;SDS011;4181;43.416;24.598;2023-12-14T06:29:08;14.57;;;6.77;;
8285;SDS011;4181;43.416;24.598;2023-12-14T06:31:34;10.63;;;6.43;;
8285;SDS011;4181;43.416;24.598;2023-12-14T06:34:02;8.43;;;6.60;;
8285;SDS011;4181;43.416;24.598;2023-12-14T06:36:32;11.53;;;8.33;;
8285;SDS011;4181;43.416;24.598;2023-12-14T06:38:59;21.20;;;10.10;;
8285;SDS011;4181;43.416;24.598;2023-12-14T06:41:26;11.70;;;5.43;;
8285;SDS011;4181;43.416;24.598;2023-12-14T06:43:53;9.73;;;5.87;;
8285;SDS011;4181;43.416;24.598;2023-12-14T06:46:19;7.07;;;5.37;;
8285;SDS011;4181;43.416;24.598;2023-12-14T06:48:45;7.97;;;4.47;;
8285;SDS011;4181;43.416;24.598;2023-12-14T06:51:11;10.20;;;6.43;;
8285;SDS011;4181;43.416;24.598;2023-12-14T06:53:38;8.47;;;6.23;;
8285;SDS011;4181;43.416;24.598;2023-12-14T06:56:08;10.70;;;6.53;;
8285;SDS011;4181;43.416;24.598;2023-12-14T06:58:39;13.03;;;6.60;;
8285;SDS011;4181;43.416;24.598;2023-12-14T07:01:05;9.27;;;4.83;;
8285;SDS011;4181;43.416;24.598;2023-12-14T07:03:31;6.17;;;4.87;;
8285;SDS011;4181;43.416;24.598;2023-12-14T07:05:57;8.67;;;5.80;;
8285;SDS011;4181;43.416;24.598;2023-12-14T07:08:23;6.10;;;4.87;;
8285;SDS011;4181;43.416;24.598;2023-12-14T07:10:49;13.83;;;5.83;;
8285;SDS011;4181;43.416;24.598;2023-12-14T07:13:14;6.93;;;5.17;;
8285;SDS011;4181;43.416;24.598;2023-12-14T07:15:40;12.23;;;5.77;;
8285;SDS011;4181;43.416;24.598;2023-12-14T07:18:05;8.30;;;5.33;;
8285;SDS011;4181;43.416;24.598;2023-12-14T07:20:31;10.50;;;6.37;;
8285;SDS011;4181;43.416;24.598;2023-12-14T07:22:56;7.07;;;4.93;;
8285;SDS011;4181;43.416;24.598;2023-12-14T07:25:22;10.00;;;7.47;;
8285;SDS011;4181;43.416;24.598;2023-12-14T07:27:47;9.47;;;5.47;;
8285;SDS011;4181;43.416;24.598;2023-12-14T07:30:13;12.30;;;5.53;;
8285;SDS011;4181;43.416;24.598;2023-12-14T07:32:38;14.37;;;6.77;;
8285;SDS011;4181;43.416;24.598;2023-12-14T07:35:04;10.03;;;6.40;;
8285;SDS011;4181;43.416;24.598;2023-12-14T07:37:31;10.67;;;7.93;;
8285;SDS011;4181;43.416;24.598;2023-12-14T07:39:57;7.37;;;4.90;;
8285;SDS011;4181;43.416;24.598;2023-12-14T07:42:23;14.13;;;5.70;;
8285;SDS011;4181;43.416;24.598;2023-12-14T07:44:49;15.07;;;6.23;;
8285;SDS011;4181;43.416;24.598;2023-12-14T07:47:15;10.10;;;4.70;;
8285;SDS011;4181;43.416;24.598;2023-12-14T07:49:40;9.90;;;5.83;;
8285;SDS011;4181;43.416;24.598;2023-12-14T07:52:06;13.03;;;6.23;;
8285;SDS011;4181;43.416;24.598;2023-12-14T07:54:31;13.53;;;6.37;;
8285;SDS011;4181;43.416;24.598;2023-12-14T07:56:57;10.90;;;5.43;;
8285;SDS011;4181;43.416;24.598;2023-12-14T07:59:22;7.47;;;5.47;;
8285;SDS011;4181;43.416;24.598;2023-12-14T08:01:48;10.13;;;5.40;;
8285;SDS011;4181;43.416;24.598;2023-12-14T08:04:13;16.00;;;7.77;;
8285;SDS011;4181;43.416;24.598;2023-12-14T08:06:39;8.87;;;4.97;;
8285;SDS011;4181;43.416;24.598;2023-12-14T08:09:05;8.07;;;5.20;;
8285;SDS011;4181;43.416;24.598;2023-12-14T08:11:33;9.87;;;6.23;;
8285;SDS011;4181;43.416;24.598;2023-12-14T08:13:59;9.57;;;5.90;;
8285;SDS011;4181;43.416;24.598;2023-12-14T08:16:25;15.03;;;6.30;;
8285;SDS011;4181;43.416;24.598;2023-12-14T08:18:51;11.20;;;5.40;;
8285;SDS011;4181;43.416;24.598;2023-12-14T08:21:17;12.23;;;6.47;;
8285;SDS011;4181;43.416;24.598;2023-12-14T08:23:43;12.13;;;7.10;;
8285;SDS011;4181;43.416;24.598;2023-12-14T08:26:09;16.63;;;6.23;;
8285;SDS011;4181;43.416;24.598;2023-12-14T08:28:40;11.03;;;6.43;;
8285;SDS011;4181;43.416;24.598;2023-12-14T08:31:06;11.93;;;5.77;;
8285;SDS011;4181;43.416;24.598;2023-12-14T08:33:33;8.77;;;5.73;;
8285;SDS011;4181;43.416;24.598;2023-12-14T08:35:58;14.50;;;6.10;;
8285;SDS011;4181;43.416;24.598;2023-12-14T08:38:24;13.53;;;5.97;;
8285;SDS011;4181;43.416;24.598;2023-12-14T08:40:50;7.50;;;5.00;;
8285;SDS011;4181;43.416;24.598;2023-12-14T08:43:16;10.50;;;5.37;;
8285;SDS011;4181;43.416;24.598;2023-12-14T08:45:44;6.03;;;4.30;;
8285;SDS011;4181;43.416;24.598;2023-12-14T08:48:09;15.80;;;6.90;;
8285;SDS011;4181;43.416;24.598;2023-12-14T08:50:35;12.63;;;6.70;;
8285;SDS011;4181;43.416;24.598;2023-12-14T08:53:03;13.77;;;7.73;;
8285;SDS011;4181;43.416;24.598;2023-12-14T08:55:30;14.73;;;6.93;;
8285;SDS011;4181;43.416;24.598;2023-12-14T08:57:59;10.37;;;6.67;;
8285;SDS011;4181;43.416;24.598;2023-12-14T09:00:26;12.40;;;7.33;;
8285;SDS011;4181;43.416;24.598;2023-12-14T09:02:54;10.67;;;6.63;;
8285;SDS011;4181;43.416;24.598;2023-12-14T09:05:20;8.07;;;5.87;;
8285;SDS011;4181;43.416;24.598;2023-12-14T09:07:46;11.87;;;7.20;;
8285;SDS011;4181;43.416;24.598;2023-12-14T09:10:12;13.20;;;6.70;;
8285;SDS011;4181;43.416;24.598;2023-12-14T09:12:37;12.60;;;7.03;;
8285;SDS011;4181;43.416;24.598;2023-12-14T09:15:03;16.77;;;8.17;;
8285;SDS011;4181;43.416;24.598;2023-12-14T09:17:29;22.97;;;7.13;;
8285;SDS011;4181;43.416;24.598;2023-12-14T09:19:58;12.67;;;7.77;;
8285;SDS011;4181;43.416;24.598;2023-12-14T09:22:27;16.13;;;8.37;;
8285;SDS011;4181;43.416;24.598;2023-12-14T09:24:52;14.63;;;7.60;;
8285;SDS011;4181;43.416;24.598;2023-12-14T09:27:18;15.33;;;7.67;;
8285;SDS011;4181;43.416;24.598;2023-12-14T09:29:43;12.87;;;8.07;;
8285;SDS011;4181;43.416;24.598;2023-12-14T09:32:09;13.23;;;7.43;;
8285;SDS011;4181;43.416;24.598;2023-12-14T09:34:34;14.27;;;7.87;;
8285;SDS011;4181;43.416;24.598;2023-12-14T09:37:00;13.27;;;8.07;;
8285;SDS011;4181;43.416;24.598;2023-12-14T09:39:26;16.73;;;8.93;;
8285;SDS011;4181;43.416;24.598;2023-12-14T09:41:53;13.20;;;7.40;;
8285;SDS011;4181;43.416;24.598;2023-12-14T09:44:28;15.80;;;8.83;;
8285;SDS011;4181;43.416;24.598;2023-12-14T09:46:54;11.90;;;7.83;;
8285;SDS011;4181;43.416;24.598;2023-12-14T09:49:20;14.17;;;7.73;;
8285;SDS011;4181;43.416;24.598;2023-12-14T09:51:49;11.50;;;7.43;;
8285;SDS011;4181;43.416;24.598;2023-12-14T09:54:15;10.90;;;6.97;;
8285;SDS011;4181;43.416;24.598;2023-12-14T09:56:47;9.83;;;7.20;;
8285;SDS011;4181;43.416;24.598;2023-12-14T09:59:13;10.47;;;6.67;;
8285;SDS011;4181;43.416;24.598;2023-12-14T10:01:38;11.23;;;6.53;;
8285;SDS011;4181;43.416;24.598;2023-12-14T10:04:07;10.33;;;6.50;;
8285;SDS011;4181;43.416;24.598;2023-12-14T10:06:37;10.33;;;5.43;;
8285;SDS011;4181;43.416;24.598;2023-12-14T10:09:06;11.50;;;6.27;;
8285;SDS011;4181;43.416;24.598;2023-12-14T10:11:38;11.03;;;6.53;;
8285;SDS011;4181;43.416;24.598;2023-12-14T10:14:26;13.20;;;6.97;;
8285;SDS011;4181;43.416;24.598;2023-12-14T10:16:51;10.63;;;5.53;;
8285;SDS011;4181;43.416;24.598;2023-12-14T10:19:20;7.07;;;4.37;;
8285;SDS011;4181;43.416;24.598;2023-12-14T10:21:46;9.73;;;5.80;;
8285;SDS011;4181;43.416;24.598;2023-12-14T10:24:13;7.70;;;4.80;;
8285;SDS011;4181;43.416;24.598;2023-12-14T10:26:39;5.93;;;4.40;;
8285;SDS011;4181;43.416;24.598;2023-12-14T10:29:05;7.50;;;4.60;;
8285;SDS011;4181;43.416;24.598;2023-12-14T10:31:31;8.20;;;4.63;;
8285;SDS011;4181;43.416;24.598;2023-12-14T10:34:03;8.53;;;5.07;;
8285;SDS011;4181;43.416;24.598;2023-12-14T10:36:30;8.13;;;4.93;;
8285;SDS011;4181;43.416;24.598;2023-12-14T10:38:57;8.37;;;4.80;;
8285;SDS011;4181;43.416;24.598;2023-12-14T10:41:23;6.23;;;3.93;;
8285;SDS011;4181;43.416;24.598;2023-12-14T10:43:53;8.10;;;4.53;;
8285;SDS011;4181;43.416;24.598;2023-12-14T10:46:20;7.07;;;4.80;;
8285;SDS011;4181;43.416;24.598;2023-12-14T10:48:54;6.90;;;5.00;;
8285;SDS011;4181;43.416;24.598;2023-12-14T10:51:21;7.63;;;4.67;;
8285;SDS011;4181;43.416;24.598;2023-12-14T10:53:48;7.73;;;5.70;;
8285;SDS011;4181;43.416;24.598;2023-12-14T10:56:16;10.20;;;4.67;;
8285;SDS011;4181;43.416;24.598;2023-12-14T10:58:50;6.07;;;3.67;;
8285;SDS011;4181;43.416;24.598;2023-12-14T11:01:23;9.07;;;5.10;;
8285;SDS011;4181;43.416;24.598;2023-12-14T11:03:49;7.40;;;4.50;;
8285;SDS011;4181;43.416;24.598;2023-12-14T11:06:30;8.23;;;4.90;;
8285;SDS011;4181;43.416;24.598;2023-12-14T11:08:59;13.43;;;6.93;;
8285;SDS011;4181;43.416;24.598;2023-12-14T11:14:22;7.27;;;4.73;;
8285;SDS011;4181;43.416;24.598;2023-12-14T11:16:55;8.33;;;4.00;;
8285;SDS011;4181;43.416;24.598;2023-12-14T11:24:18;6.47;;;3.80;;
8285;SDS011;4181;43.416;24.598;2023-12-14T11:26:44;5.27;;;3.57;;
8285;SDS011;4181;43.416;24.598;2023-12-14T11:29:12;5.37;;;4.00;;
8285;SDS011;4181;43.416;24.598;2023-12-14T11:31:39;4.77;;;3.37;;
8285;SDS011;4181;43.416;24.598;2023-12-14T11:34:05;5.73;;;3.47;;
8285;SDS011;4181;43.416;24.598;2023-12-14T11:36:32;3.47;;;2.57;;
8285;SDS011;4181;43.416;24.598;2023-12-14T11:38:58;5.93;;;2.67;;
8285;SDS011;4181;43.416;24.598;2023-12-14T11:41:23;6.93;;;4.00;;
8285;SDS011;4181;43.416;24.598;2023-12-14T11:43:50;5.53;;;3.03;;
8285;SDS011;4181;43.416;24.598;2023-12-14T11:46:16;6.30;;;3.60;;
8285;SDS011;4181;43.416;24.598;2023-12-14T11:48:45;7.83;;;4.63;;
8285;SDS011;4181;43.416;24.598;2023-12-14T11:51:11;4.93;;;3.57;;
8285;SDS011;4181;43.416;24.598;2023-12-14T11:53:39;2.87;;;2.43;;
8285;SDS011;4181;43.416;24.598;2023-12-14T11:56:05;2.87;;;1.90;;
8285;SDS011;4181;43.416;24.598;2023-12-14T11:58:32;4.67;;;3.23;;
8285;SDS011;4181;43.416;24.598;2023-12-14T12:03:46;4.67;;;1.93;;
8285;SDS011;4181;43.416;24.598;2023-12-14T12:06:21;2.07;;;1.80;;
8285;SDS011;4181;43.416;24.598;2023-12-14T12:08:47;2.17;;;1.70;;
8285;SDS011;4181;43.416;24.598;2023-12-14T12:11:23;1.80;;;1.53;;
8285;SDS011;4181;43.416;24.598;2023-12-14T12:13:53;2.10;;;1.57;;
8285;SDS011;4181;43.416;24.598;2023-12-14T12:16:20;1.80;;;1.70;;
8285;SDS011;4181;43.416;24.598;2023-12-14T12:18:46;1.83;;;1.60;;
8285;SDS011;4181;43.416;24.598;2023-12-14T12:21:11;3.10;;;2.37;;
8285;SDS011;4181;43.416;24.598;2023-12-14T12:23:37;2.57;;;1.53;;
8285;SDS011;4181;43.416;24.598;2023-12-14T12:26:03;2.67;;;2.30;;
8285;SDS011;4181;43.416;24.598;2023-12-14T12:28:29;1.90;;;1.60;;
8285;SDS011;4181;43.416;24.598;2023-12-14T12:30:55;3.50;;;1.80;;
8285;SDS011;4181;43.416;24.598;2023-12-14T12:33:21;2.97;;;2.20;;
8285;SDS011;4181;43.416;24.598;2023-12-14T12:35:46;3.90;;;2.70;;
8285;SDS011;4181;43.416;24.598;2023-12-14T12:38:12;4.27;;;1.77;;
8285;SDS011;4181;43.416;24.598;2023-12-14T12:40:37;13.50;;;8.03;;
8285;SDS011;4181;43.416;24.598;2023-12-14T12:43:03;4.80;;;2.70;;
8285;SDS011;4181;43.416;24.598;2023-12-14T12:45:29;2.00;;;1.67;;
8285;SDS011;4181;43.416;24.598;2023-12-14T12:47:54;2.83;;;1.87;;
8285;SDS011;4181;43.416;24.598;2023-12-14T12:50:20;1.90;;;1.33;;
8285;SDS011;4181;43.416;24.598;2023-12-14T12:52:46;1.60;;;1.50;;
8285;SDS011;4181;43.416;24.598;2023-12-14T12:55:14;2.00;;;1.83;;
8285;SDS011;4181;43.416;24.598;2023-12-14T12:57:40;1.60;;;1.50;;
8285;SDS011;4181;43.416;24.598;2023-12-14T13:00:09;2.80;;;1.30;;
8285;SDS011;4181;43.416;24.598;2023-12-14T13:02:38;2.67;;;1.60;;
8285;SDS011;4181;43.416;24.598;2023-12-14T13:05:06;1.77;;;1.30;;
8285;SDS011;4181;43.416;24.598;2023-12-14T13:07:33;1.53;;;1.37;;
8285;SDS011;4181;43.416;24.598;2023-12-14T13:09:59;2.07;;;1.40;;
8285;SDS011;4181;43.416;24.598;2023-12-14T13:12:24;2.13;;;1.70;;
8285;SDS011;4181;43.416;24.598;2023-12-14T13:14:50;2.27;;;1.77;;
8285;SDS011;4181;43.416;24.598;2023-12-14T13:17:15;3.43;;;1.60;;
8285;SDS011;4181;43.416;24.598;2023-12-14T13:19:44;1.90;;;1.60;;
8285;SDS011;4181;43.416;24.598;2023-12-14T13:22:10;1.60;;;1.50;;
8285;SDS011;4181;43.416;24.598;2023-12-14T13:24:38;2.07;;;1.50;;
8285;SDS011;4181;43.416;24.598;2023-12-14T13:27:10;3.27;;;1.53;;
8285;SDS011;4181;43.416;24.598;2023-12-14T13:29:36;1.83;;;1.20;;
8285;SDS011;4181;43.416;24.598;2023-12-14T13:32:01;1.50;;;1.23;;
8285;SDS011;4181;43.416;24.598;2023-12-14T13:34:35;1.47;;;1.37;;
8285;SDS011;4181;43.416;24.598;2023-12-14T13:37:02;1.10;;;1.00;;
8285;SDS011;4181;43.416;24.598;2023-12-14T13:39:34;1.67;;;1.30;;
8285;SDS011;4181;43.416;24.598;2023-12-14T13:42:07;1.67;;;1.43;;
8285;SDS011;4181;43.416;24.598;2023-12-14T13:44:33;1.47;;;1.30;;
8285;SDS011;4181;43.416;24.598;2023-12-14T13:47:07;1.53;;;1.20;;
8285;SDS011;4181;43.416;24.598;2023-12-14T13:49:39;3.37;;;2.33;;
8285;SDS011;4181;43.416;24.598;2023-12-14T13:52:04;3.87;;;2.37;;
8285;SDS011;4181;43.416;24.598;2023-12-14T13:54:32;9.17;;;5.57;;
8285;SDS011;4181;43.416;24.598;2023-12-14T13:56:58;3.17;;;2.53;;
8285;SDS011;4181;43.416;24.598;2023-12-14T13:59:26;12.50;;;6.40;;
8285;SDS011;4181;43.416;24.598;2023-12-14T14:01:51;3.03;;;2.30;;
8285;SDS011;4181;43.416;24.598;2023-12-14T14:04:17;3.47;;;2.30;;
8285;SDS011;4181;43.416;24.598;2023-12-14T14:06:43;6.27;;;3.87;;
8285;SDS011;4181;43.416;24.598;2023-12-14T14:09:40;3.87;;;2.83;;
8285;SDS011;4181;43.416;24.598;2023-12-14T14:12:11;1.93;;;1.70;;
8285;SDS011;4181;43.416;24.598;2023-12-14T14:14:36;2.17;;;1.70;;
8285;SDS011;4181;43.416;24.598;2023-12-14T14:17:05;1.43;;;1.33;;
8285;SDS011;4181;43.416;24.598;2023-12-14T14:19:32;2.03;;;1.70;;
8285;SDS011;4181;43.416;24.598;2023-12-14T14:21:58;2.00;;;1.60;;
8285;SDS011;4181;43.416;24.598;2023-12-14T14:24:28;2.13;;;1.73;;
8285;SDS011;4181;43.416;24.598;2023-12-14T14:26:59;4.63;;;1.67;;
8285;SDS011;4181;43.416;24.598;2023-12-14T14:29:27;2.07;;;1.57;;
8285;SDS011;4181;43.416;24.598;2023-12-14T14:31:53;1.67;;;1.50;;
8285;SDS011;4181;43.416;24.598;2023-12-14T14:34:24;1.57;;;1.47;;
8285;SDS011;4181;43.416;24.598;2023-12-14T14:36:52;6.70;;;2.50;;
8285;SDS011;4181;43.416;24.598;2023-12-14T14:39:20;2.90;;;2.20;;
8285;SDS011;4181;43.416;24.598;2023-12-14T14:41:46;2.27;;;1.83;;
8285;SDS011;4181;43.416;24.598;2023-12-14T14:44:11;2.23;;;1.70;;
8285;SDS011;4181;43.416;24.598;2023-12-14T14:46:37;4.60;;;2.73;;
8285;SDS011;4181;43.416;24.598;2023-12-14T14:49:03;3.37;;;2.47;;
8285;SDS011;4181;43.416;24.598;2023-12-14T14:51:28;4.83;;;3.00;;
8285;SDS011;4181;43.416;24.598;2023-12-14T14:53:55;4.43;;;2.37;;
8285;SDS011;4181;43.416;24.598;2023-12-14T14:56:21;4.30;;;2.37;;
8285;SDS011;4181;43.416;24.598;2023-12-14T14:58:47;4.33;;;2.67;;
8285;SDS011;4181;43.416;24.598;2023-12-14T15:01:12;2.60;;;1.87;;
8285;SDS011;4181;43.416;24.598;2023-12-14T15:03:38;4.27;;;1.90;;